createdAt,value
2023-02-01T00:01:20.060Z,94617.44
2023-02-01T00:03:48.020Z,94620.22
2023-02-01T00:06:16.034Z,94624.31
2023-02-01T00:08:44.257Z,94619.41
2023-02-01T00:11:13.806Z,94617.69
2023-02-01T00:13:43.574Z,94600.00
2023-02-01T00:16:15.556Z,94612.84
2023-02-01T00:18:43.667Z,94609.97
2023-02-01T00:21:12.654Z,94628.88
2023-02-01T00:23:41.040Z,94628.16
2023-02-01T00:26:15.263Z,94617.94
2023-02-01T00:28:43.582Z,94593.34
2023-02-01T00:31:13.179Z,94612.34
2023-02-01T00:33:41.185Z,94598.97
2023-02-01T00:36:11.563Z,94604.78
2023-02-01T00:38:40.454Z,94628.47
2023-02-01T00:41:12.062Z,94619.28
2023-02-01T00:43:40.462Z,94602.34
2023-02-01T00:46:08.592Z,94611.72
2023-02-01T00:48:38.169Z,94613.47
2023-02-01T00:51:08.654Z,94617.56
2023-02-01T00:53:36.669Z,94607.66
2023-02-01T00:56:06.085Z,94613.59
2023-02-01T00:58:34.682Z,94605.31
2023-02-01T01:01:07.563Z,94619.94
2023-02-01T01:03:38.417Z,94615.53
2023-02-01T01:06:08.905Z,94606.25
2023-02-01T01:08:37.443Z,94617.25
2023-02-01T01:11:10.199Z,94605.50
2023-02-01T01:13:38.751Z,94600.59
2023-02-01T01:16:08.818Z,94602.84
2023-02-01T01:18:38.808Z,94610.09
2023-02-01T01:21:07.963Z,94601.50
2023-02-01T01:23:36.499Z,94599.72
2023-02-01T01:26:08.202Z,94599.88
2023-02-01T01:28:36.499Z,94598.03
2023-02-01T01:31:04.960Z,94604.78
2023-02-01T01:33:33.037Z,94602.38
2023-02-01T01:36:02.409Z,94595.03
2023-02-01T01:38:30.332Z,94607.03
2023-02-01T01:40:58.432Z,94618.28
2023-02-01T01:43:26.347Z,94620.84
2023-02-01T01:45:54.265Z,94623.19
2023-02-01T01:48:28.301Z,94628.72
2023-02-01T01:51:01.773Z,94618.69
2023-02-01T01:53:36.354Z,94622.63
2023-02-01T01:56:04.374Z,94618.66
2023-02-01T01:58:35.356Z,94617.81
2023-02-01T02:01:03.374Z,94624.56
2023-02-01T02:03:37.037Z,94618.13
2023-02-01T02:06:08.841Z,94626.00
2023-02-01T02:08:38.115Z,94606.09
2023-02-01T02:11:06.268Z,94611.31
2023-02-01T02:13:38.002Z,94596.31
2023-02-01T02:16:27.247Z,94604.88
2023-02-01T02:19:19.284Z,94604.97
2023-02-01T02:22:02.292Z,94585.81
2023-02-01T02:25:03.903Z,94587.34
2023-02-01T02:27:48.929Z,94601.63
2023-02-01T02:30:40.093Z,94603.97
2023-02-01T02:33:42.587Z,94612.41
2023-02-01T02:36:19.069Z,94603.97
2023-02-01T02:38:54.706Z,94609.06
2023-02-01T02:41:48.123Z,94605.72
2023-02-01T02:44:48.944Z,94610.81
2023-02-01T02:47:27.068Z,94605.91
2023-02-01T02:50:19.570Z,94606.50
2023-02-01T02:53:08.791Z,94601.31
2023-02-01T02:55:39.264Z,94600.69
2023-02-01T02:58:26.746Z,94590.59
2023-02-01T03:01:14.226Z,94596.19
2023-02-01T03:03:59.873Z,94601.72
2023-02-01T03:06:29.127Z,94610.59
2023-02-01T03:08:59.792Z,94607.31
2023-02-01T03:11:49.611Z,94613.66
2023-02-01T03:14:19.090Z,94613.03
2023-02-01T03:16:52.885Z,94630.81
2023-02-01T03:19:25.878Z,94625.78
2023-02-01T03:24:35.096Z,94627.53
2023-02-01T03:27:08.912Z,94635.91
2023-02-01T03:29:42.990Z,94638.56
2023-02-01T03:32:11.541Z,94609.28
2023-02-01T03:34:39.760Z,94655.84
2023-02-01T03:37:12.976Z,94626.22
2023-02-01T03:39:48.508Z,94641.44
2023-02-01T03:42:21.251Z,94636.84
2023-02-01T03:44:55.553Z,94635.69
2023-02-01T03:47:27.398Z,94634.56
2023-02-01T03:50:00.373Z,94633.47
2023-02-01T03:52:35.214Z,94635.41
2023-02-01T03:55:04.431Z,94643.25
2023-02-01T03:57:36.908Z,94642.22
2023-02-01T04:00:11.109Z,94634.56
2023-02-01T04:02:39.154Z,94642.22
2023-02-01T04:05:07.316Z,94625.88
2023-02-01T04:07:36.777Z,94639.66
2023-02-01T04:10:05.433Z,94622.63
2023-02-01T04:12:33.366Z,94631.91
2023-02-01T04:15:01.306Z,94615.66
2023-02-01T04:17:29.264Z,94614.88
2023-02-01T04:19:57.376Z,94629.38
2023-02-01T04:22:25.490Z,94641.19
2023-02-01T04:24:54.741Z,94636.28
2023-02-01T04:27:22.863Z,94623.50
2023-02-01T04:29:51.590Z,94647.81
2023-02-01T04:32:20.832Z,94626.97
2023-02-01T04:34:48.934Z,94624.34
2023-02-01T04:37:16.900Z,94638.19
2023-02-01T04:39:44.853Z,94639.34
2023-02-01T04:42:14.765Z,94628.91
2023-02-01T04:44:42.985Z,94654.53
2023-02-01T04:47:11.577Z,94624.72
2023-02-01T04:49:39.708Z,94639.13
2023-02-01T04:52:07.679Z,94635.75
2023-02-01T04:54:35.763Z,94635.63
2023-02-01T04:57:03.677Z,94645.34
2023-02-01T04:59:32.910Z,94642.06
2023-02-01T05:02:01.020Z,94654.53
2023-02-01T05:04:29.350Z,94647.06
2023-02-01T05:06:57.297Z,94662.72
2023-02-01T05:09:25.245Z,94658.13
2023-02-01T05:12:10.673Z,94657.28
2023-02-01T05:14:39.940Z,94667.50
2023-02-01T05:17:07.987Z,94671.91
2023-02-01T05:19:35.929Z,94663.00
2023-02-01T05:22:03.828Z,94663.75
2023-02-01T05:24:31.747Z,94664.75
2023-02-01T05:26:59.775Z,94637.69
2023-02-01T05:29:27.704Z,94659.81
2023-02-01T05:31:59.302Z,94653.00
2023-02-01T05:34:29.182Z,94667.97
2023-02-01T05:36:57.063Z,94666.03
2023-02-01T05:39:25.002Z,94660.91
2023-02-01T05:41:52.915Z,94639.88
2023-02-01T05:44:20.901Z,94653.44
2023-02-01T05:46:50.221Z,94647.59
2023-02-01T05:49:19.544Z,94659.66
2023-02-01T05:51:52.512Z,94653.69
2023-02-01T05:54:20.583Z,94665.25
2023-02-01T05:56:48.456Z,94663.19
2023-02-01T05:59:16.708Z,94691.81
2023-02-01T06:01:45.678Z,94680.31
2023-02-01T06:04:14.952Z,94691.03
2023-02-01T06:06:44.377Z,94698.38
2023-02-01T06:09:12.446Z,94670.13
2023-02-01T06:11:42.352Z,94696.31
2023-02-01T06:14:10.394Z,94665.63
2023-02-01T06:16:38.646Z,94675.53
2023-02-01T06:19:06.861Z,94681.56
2023-02-01T06:21:35.299Z,94680.53
2023-02-01T06:24:04.987Z,94694.25
2023-02-01T06:26:35.105Z,94668.06
2023-02-01T06:29:03.452Z,94688.22
2023-02-01T06:31:33.169Z,94696.38
2023-02-01T06:34:01.667Z,94676.72
2023-02-01T06:36:29.718Z,94702.09
2023-02-01T06:39:00.319Z,94679.88
2023-02-01T06:41:29.876Z,94703.88
2023-02-01T06:43:58.051Z,94689.66
2023-02-01T06:46:26.161Z,94697.34
2023-02-01T06:48:55.479Z,94695.81
2023-02-01T06:51:25.790Z,94716.47
2023-02-01T06:53:54.400Z,94709.69
2023-02-01T06:56:23.155Z,94711.53
2023-02-01T06:58:52.696Z,94718.09
2023-02-01T07:01:21.841Z,94716.34
2023-02-01T07:03:52.050Z,94716.22
2023-02-01T07:06:20.840Z,94725.41
2023-02-01T07:08:49.194Z,94724.94
2023-02-01T07:11:18.533Z,94734.69
2023-02-01T07:13:47.543Z,94736.81
2023-02-01T07:16:19.581Z,94734.50
2023-02-01T07:18:48.519Z,94734.91
2023-02-01T07:21:18.589Z,94730.22
2023-02-01T07:23:47.340Z,94741.25
2023-02-01T07:26:17.545Z,94741.75
2023-02-01T07:28:47.175Z,94752.81
2023-02-01T07:31:19.986Z,94751.44
2023-02-01T07:33:48.047Z,94747.94
2023-02-01T07:36:18.215Z,94754.72
2023-02-01T07:38:47.969Z,94763.69
2023-02-01T07:41:16.707Z,94761.13
2023-02-01T07:43:44.879Z,94760.09
2023-02-01T07:46:13.715Z,94747.94
2023-02-01T07:48:43.121Z,94762.44
2023-02-01T07:51:14.254Z,94768.97
2023-02-01T07:53:43.556Z,94758.94
2023-02-01T07:56:14.871Z,94767.47
2023-02-01T07:58:42.994Z,94773.16
2023-02-01T08:01:22.740Z,94788.69
2023-02-01T08:03:53.926Z,94788.94
2023-02-01T08:06:22.886Z,94786.84
2023-02-01T08:08:51.925Z,94792.09
2023-02-01T08:11:21.511Z,94798.00
2023-02-01T08:13:50.015Z,94788.81
2023-02-01T08:16:19.910Z,94786.28
2023-02-01T08:18:48.617Z,94786.84
2023-02-01T08:21:20.180Z,94783.13
2023-02-01T08:23:48.612Z,94775.56
2023-02-01T08:26:19.762Z,94780.03
2023-02-01T08:28:53.621Z,94778.84
2023-02-01T08:31:24.042Z,94790.75
2023-02-01T08:33:54.044Z,94777.72
2023-02-01T08:36:25.556Z,94783.56
2023-02-01T08:38:53.836Z,94790.22
2023-02-01T08:41:24.205Z,94798.13
2023-02-01T08:43:54.184Z,94769.91
2023-02-01T08:46:22.436Z,94780.03
2023-02-01T08:48:51.111Z,94766.41
2023-02-01T08:51:22.300Z,94773.88
2023-02-01T08:53:52.432Z,94772.50
2023-02-01T08:56:21.928Z,94767.94
2023-02-01T08:58:50.082Z,94778.53
2023-02-01T09:01:19.617Z,94749.53
2023-02-01T09:03:48.103Z,94752.44
2023-02-01T09:06:20.578Z,94773.66
2023-02-01T09:08:48.677Z,94779.94
2023-02-01T09:11:21.633Z,94773.16
2023-02-01T09:13:50.613Z,94771.31
2023-02-01T09:16:18.977Z,94783.78
2023-02-01T09:18:56.196Z,94779.69
2023-02-01T09:21:35.719Z,94800.78
2023-02-01T09:24:05.230Z,94784.72
2023-02-01T09:26:35.210Z,94781.53
2023-02-01T09:29:04.518Z,94787.22
2023-02-01T09:31:33.014Z,94783.09
2023-02-01T09:34:01.686Z,94782.56
2023-02-01T09:36:31.238Z,94772.06
2023-02-01T09:39:00.000Z,94768.59
2023-02-01T09:41:45.731Z,94785.75
2023-02-01T09:44:35.597Z,94794.38
2023-02-01T09:47:14.747Z,94764.06
2023-02-01T09:49:54.476Z,94766.88
2023-02-01T09:52:29.158Z,94755.13
2023-02-01T09:55:01.993Z,94732.13
2023-02-01T09:57:42.561Z,94738.69
2023-02-01T10:00:19.157Z,94742.38
2023-02-01T10:02:47.283Z,94743.66
2023-02-01T10:05:18.836Z,94713.94
2023-02-01T10:07:59.530Z,94757.16
2023-02-01T10:10:33.414Z,94717.09
2023-02-01T10:13:33.403Z,94740.25
2023-02-01T10:16:19.348Z,94720.59
2023-02-01T10:19:09.589Z,94719.53
2023-02-01T10:21:50.014Z,94704.09
2023-02-01T10:24:28.305Z,94710.16
2023-02-01T10:27:04.232Z,94708.16
2023-02-01T10:29:48.842Z,94698.63
2023-02-01T10:32:20.005Z,94706.50
2023-02-01T10:34:52.121Z,94709.78
2023-02-01T10:37:29.378Z,94681.28
2023-02-01T10:39:59.796Z,94687.50
2023-02-01T10:42:29.635Z,94681.75
2023-02-01T10:45:05.629Z,94686.72
2023-02-01T10:47:33.545Z,94679.22
2023-02-01T10:50:16.679Z,94689.31
2023-02-01T10:52:51.042Z,94690.16
2023-02-01T10:55:31.362Z,94698.56
2023-02-01T10:58:00.798Z,94687.09
2023-02-01T11:00:36.598Z,94704.63
2023-02-01T11:03:23.256Z,94688.19
2023-02-01T11:05:52.113Z,94685.38
2023-02-01T11:08:21.692Z,94697.63
2023-02-01T11:11:01.631Z,94701.38
2023-02-01T11:13:37.358Z,94678.59
2023-02-01T11:16:08.442Z,94674.53
2023-02-01T11:18:39.665Z,94700.28
2023-02-01T11:21:10.379Z,94697.59
2023-02-01T11:23:45.256Z,94668.78
2023-02-01T11:26:16.820Z,94668.31
2023-02-01T11:28:53.791Z,94660.72
2023-02-01T11:31:24.874Z,94658.81
2023-02-01T11:33:56.431Z,94643.34
2023-02-01T11:36:29.099Z,94677.06
2023-02-01T11:39:11.749Z,94657.44
2023-02-01T11:41:57.453Z,94650.16
2023-02-01T11:44:32.919Z,94661.50
2023-02-01T11:50:16.931Z,94657.44
2023-02-01T11:53:00.489Z,94631.44
2023-02-01T11:55:58.084Z,94633.88
2023-02-01T11:58:47.952Z,94643.59
2023-02-01T12:01:31.229Z,94639.22
2023-02-01T12:04:20.371Z,94626.31
2023-02-01T12:06:54.797Z,94609.28
2023-02-01T12:09:39.211Z,94659.78
2023-02-01T12:12:15.889Z,94639.38
2023-02-01T12:15:07.972Z,94610.59
2023-02-01T12:17:54.297Z,94607.41
2023-02-01T12:20:37.066Z,94620.91
2023-02-01T12:23:27.497Z,94627.03
2023-02-01T12:26:25.180Z,94636.22
2023-02-01T12:29:18.736Z,94625.50
2023-02-01T12:32:06.266Z,94626.03
2023-02-01T12:34:52.835Z,94615.84
2023-02-01T12:37:34.382Z,94630.31
2023-02-01T12:40:19.386Z,94660.09
2023-02-01T12:42:56.005Z,94630.28
2023-02-01T12:45:34.240Z,94638.16
2023-02-01T12:48:16.704Z,94631.22
2023-02-01T12:50:51.456Z,94613.31
2023-02-01T12:53:25.619Z,94608.88
2023-02-01T12:55:59.491Z,94629.78
2023-02-01T12:58:34.751Z,94617.91
2023-02-01T13:01:09.750Z,94626.34
2023-02-01T13:03:42.652Z,94639.53
2023-02-01T13:06:15.672Z,94629.63
2023-02-01T13:08:54.967Z,94603.19
2023-02-01T13:11:30.298Z,94619.09
2023-02-01T13:14:05.447Z,94610.88
2023-02-01T13:16:36.642Z,94630.09
2023-02-01T13:19:12.751Z,94628.78
2023-02-01T13:21:45.507Z,94625.66
2023-02-01T13:24:35.025Z,94604.25
2023-02-01T13:27:07.780Z,94618.75
2023-02-01T13:29:37.029Z,94620.81
2023-02-01T13:32:52.986Z,94628.19
2023-02-01T13:35:42.650Z,94608.75
2023-02-01T13:38:40.979Z,94634.34
2023-02-01T13:41:27.911Z,94613.28
2023-02-01T13:44:03.604Z,94637.41
2023-02-01T13:46:32.623Z,94613.47
2023-02-01T13:49:04.326Z,94617.28
2023-02-01T13:51:39.429Z,94638.06
2023-02-01T13:54:08.737Z,94612.25
2023-02-01T13:56:45.041Z,94615.00
2023-02-01T14:00:01.998Z,94604.81
2023-02-01T14:03:05.839Z,94628.00
2023-02-01T14:06:01.935Z,94648.13
2023-02-01T14:08:43.233Z,94612.13
2023-02-01T14:11:43.433Z,94617.66
2023-02-01T14:14:45.836Z,94599.69
2023-02-01T14:17:40.284Z,94605.75
2023-02-01T14:20:46.713Z,94603.09
2023-02-01T14:23:24.612Z,94590.41
2023-02-01T14:26:14.503Z,94603.75
2023-02-01T14:28:47.010Z,94596.59
2023-02-01T14:31:48.917Z,94600.94
2023-02-01T14:34:23.844Z,94590.09
2023-02-01T14:36:57.041Z,94581.41
2023-02-01T14:39:35.838Z,94577.63
2023-02-01T14:42:07.908Z,94596.38
2023-02-01T14:44:39.094Z,94613.59
2023-02-01T14:47:32.045Z,94611.63
2023-02-01T14:50:22.406Z,94623.38
2023-02-01T14:53:01.186Z,94619.16
2023-02-01T14:55:35.905Z,94626.16
2023-02-01T14:58:19.931Z,94624.28
2023-02-01T15:00:54.983Z,94622.56
2023-02-01T15:03:47.122Z,94615.03
2023-02-01T15:06:38.433Z,94613.94
2023-02-01T15:09:18.022Z,94620.88
2023-02-01T15:12:01.611Z,94617.75
2023-02-01T15:14:34.223Z,94610.69
2023-02-01T15:17:03.194Z,94619.22
2023-02-01T15:19:33.273Z,94613.28
2023-02-01T15:22:05.448Z,94600.69
2023-02-01T15:25:17.072Z,94592.94
2023-02-01T16:07:42.736Z,94583.31
2023-02-01T16:10:56.623Z,94618.53
2023-02-01T16:13:39.785Z,94609.03
2023-02-01T16:16:16.400Z,94603.22
2023-02-01T16:18:45.901Z,94601.19
2023-02-01T16:35:15.901Z,94624.09
2023-02-01T16:45:06.141Z,94645.50
2023-02-01T16:53:48.332Z,94644.41
2023-02-01T17:02:48.884Z,94641.13
2023-02-01T17:05:18.562Z,94639.91
2023-02-01T17:07:46.865Z,94625.69
2023-02-01T17:10:34.658Z,94621.25
2023-02-01T17:13:04.228Z,94627.88
2023-02-01T17:15:37.553Z,94625.41
2023-02-01T17:18:09.245Z,94617.44
2023-02-01T17:23:35.095Z,94613.38
2023-02-01T17:38:25.008Z,94598.63
2023-02-01T17:44:09.025Z,94598.75
2023-02-01T17:46:37.585Z,94591.59
2023-02-01T17:49:19.967Z,94595.25
2023-02-01T17:51:50.625Z,94587.78
2023-02-01T17:54:20.321Z,94582.66
2023-02-01T17:56:49.142Z,94586.72
2023-02-01T17:59:21.599Z,94589.16
2023-02-01T18:01:50.331Z,94597.81
2023-02-01T18:04:26.430Z,94595.38
2023-02-01T18:06:58.536Z,94597.28
2023-02-01T18:12:31.340Z,94607.84
2023-02-01T18:15:01.616Z,94601.63
2023-02-01T18:17:33.958Z,94600.78
2023-02-01T18:20:04.099Z,94595.94
2023-02-01T18:22:35.444Z,94598.34
2023-02-01T18:25:03.632Z,94596.72
2023-02-01T18:27:32.732Z,94596.31
2023-02-01T18:30:03.042Z,94589.69
2023-02-01T18:32:31.555Z,94601.06
2023-02-01T18:35:01.639Z,94599.16
2023-02-01T18:37:29.850Z,94586.59
2023-02-01T18:39:57.983Z,94599.31
2023-02-01T18:42:26.178Z,94598.34
2023-02-01T18:44:54.307Z,94590.06
2023-02-01T18:47:36.257Z,94590.97
2023-02-01T18:50:04.509Z,94588.63
2023-02-01T18:52:33.125Z,94585.22
2023-02-01T18:55:02.699Z,94564.03
2023-02-01T18:57:30.748Z,94565.13
2023-02-01T18:59:59.326Z,94553.81
2023-02-01T19:02:30.747Z,94570.97
2023-02-01T19:04:59.405Z,94554.53
2023-02-01T19:07:27.709Z,94550.72
2023-02-01T19:09:57.499Z,94558.72
2023-02-01T19:12:26.174Z,94570.56
2023-02-01T19:14:54.332Z,94570.53
2023-02-01T19:17:23.472Z,94575.97
2023-02-01T19:19:57.500Z,94572.13
2023-02-01T19:22:29.412Z,94577.25
2023-02-01T19:27:47.913Z,94574.78
2023-02-01T19:30:20.056Z,94561.19
2023-02-01T19:32:48.734Z,94556.13
2023-02-01T19:35:21.645Z,94565.84
2023-02-01T19:37:51.001Z,94564.63
2023-02-01T19:40:22.295Z,94561.00
2023-02-01T20:04:50.934Z,94557.84
2023-02-01T20:07:19.309Z,94561.16
2023-02-01T20:09:49.390Z,94574.91
2023-02-01T20:12:19.121Z,94559.13
2023-02-01T20:14:48.859Z,94572.06
2023-02-01T20:17:18.630Z,94577.63
2023-02-01T20:19:51.135Z,94575.50
2023-02-01T20:22:20.835Z,94575.19
2023-02-01T20:24:50.074Z,94569.75
2023-02-01T20:27:19.555Z,94577.63
2023-02-01T20:29:47.709Z,94574.91
2023-02-01T20:32:16.760Z,94580.16
2023-02-01T20:34:45.002Z,94572.69
2023-02-01T20:37:13.214Z,94578.66
2023-02-01T20:42:41.705Z,94580.41
2023-02-01T20:45:10.928Z,94564.69
2023-02-01T20:47:39.298Z,94567.75
2023-02-01T20:50:08.548Z,94573.38
2023-02-01T20:52:37.452Z,94553.56
2023-02-01T20:55:08.499Z,94563.50
2023-02-01T20:57:36.709Z,94566.56
2023-02-01T21:00:08.099Z,94558.75
2023-02-01T21:02:36.577Z,94580.78
2023-02-01T21:05:04.770Z,94581.34
2023-02-01T21:07:33.099Z,94574.09
2023-02-01T21:10:02.292Z,94558.06
2023-02-01T21:12:32.306Z,94566.91
2023-02-01T21:15:00.408Z,94576.97
2023-02-01T21:17:31.114Z,94576.59
2023-02-01T21:19:59.425Z,94570.63
2023-02-01T21:22:27.835Z,94576.19
2023-02-01T21:24:55.913Z,94574.84
2023-02-01T21:27:24.437Z,94581.34
2023-02-01T21:29:54.298Z,94587.72
2023-02-01T21:32:22.388Z,94591.28
2023-02-01T21:34:50.451Z,94603.50
2023-02-01T21:37:18.499Z,94600.94
2023-02-01T21:39:46.602Z,94597.19
2023-02-01T21:42:19.379Z,94588.44
2023-02-01T21:44:48.599Z,94603.72
2023-02-01T21:47:21.263Z,94592.75
2023-02-01T21:49:54.002Z,94587.97
2023-02-01T21:52:23.686Z,94588.94
2023-02-01T21:54:59.330Z,94606.00
2023-02-01T21:57:28.213Z,94603.59
2023-02-01T21:59:56.444Z,94601.97
2023-02-01T22:02:26.375Z,94590.38
2023-02-01T22:04:54.945Z,94588.66
2023-02-01T22:07:23.064Z,94598.38
2023-02-01T22:09:51.253Z,94583.72
2023-02-01T22:12:19.722Z,94595.38
2023-02-01T22:14:49.611Z,94581.78
2023-02-01T22:17:17.671Z,94581.22
2023-02-01T22:19:47.179Z,94579.59
2023-02-01T22:22:15.434Z,94566.38
2023-02-01T22:24:43.508Z,94590.22
2023-02-01T22:27:14.053Z,94594.75
2023-02-01T22:29:43.478Z,94597.75
2023-02-01T22:32:13.988Z,94599.25
2023-02-01T22:34:45.379Z,94604.13
2023-02-01T22:37:14.883Z,94593.66
2023-02-01T22:39:43.035Z,94600.56
2023-02-01T22:42:11.353Z,94598.38
2023-02-01T22:44:41.420Z,94592.09
2023-02-01T22:47:09.658Z,94598.81
2023-02-01T22:49:38.447Z,94595.47
2023-02-01T22:52:06.573Z,94592.66
2023-02-01T22:54:36.578Z,94607.56
2023-02-01T22:57:05.024Z,94597.72
2023-02-01T22:59:33.650Z,94597.13
2023-02-01T23:02:02.224Z,94590.78
2023-02-01T23:04:30.218Z,94599.19
2023-02-01T23:06:58.233Z,94583.91
2023-02-01T23:09:27.344Z,94608.53
2023-02-01T23:11:56.640Z,94607.47
2023-02-01T23:14:24.701Z,94602.34
2023-02-01T23:16:52.936Z,94604.13
2023-02-01T23:19:21.421Z,94606.72
2023-02-01T23:21:49.871Z,94602.81
2023-02-01T23:24:17.918Z,94607.31
2023-02-01T23:26:45.877Z,94602.00
2023-02-01T23:29:19.341Z,94600.53
2023-02-01T23:31:47.388Z,94602.97
2023-02-01T23:34:15.304Z,94612.19
2023-02-01T23:36:43.260Z,94620.56
2023-02-01T23:39:11.156Z,94617.59
2023-02-01T23:41:39.320Z,94619.22
2023-02-01T23:44:07.238Z,94608.78
2023-02-01T23:46:39.283Z,94618.69
2023-02-01T23:49:09.244Z,94615.97
2023-02-01T23:51:37.950Z,94618.81
2023-02-01T23:54:06.525Z,94617.47
2023-02-01T23:56:36.255Z,94610.56
2023-02-01T23:59:06.539Z,94620.28
